sensor_id;sensor_type;location;lat;lon;timestamp;pressure;altitude;pressure_sealevel;temperature;humidity
19831;BME280;10076;52.008;4.708;2022-11-20T00:00:55;101421.16;;;1.22;100.00
19831;BME280;10076;52.008;4.708;2022-11-20T00:03:21;101413.72;;;1.43;100.00
19831;BME280;10076;52.008;4.708;2022-11-20T00:05:46;101417.41;;;1.33;100.00
19831;BME280;10076;52.008;4.708;2022-11-20T00:08:12;101418.97;;;1.40;100.00
19831;BME280;10076;52.008;4.708;2022-11-20T00:10:38;101424.41;;;1.31;100.00
19831;BME280;10076;52.008;4.708;2022-11-20T00:13:04;101419.94;;;1.36;100.00
19831;BME280;10076;52.008;4.708;2022-11-20T00:15:30;101411.06;;;1.44;100.00
19831;BME280;10076;52.008;4.708;2022-11-20T00:17:56;101419.25;;;1.30;100.00
19831;BME280;10076;52.008;4.708;2022-11-20T00:20:21;101423.53;;;1.32;100.00
19831;BME280;10076;52.008;4.708;2022-11-20T00:22:46;101420.78;;;1.38;100.00
19831;BME280;10076;52.008;4.708;2022-11-20T00:25:11;101419.06;;;1.37;100.00
19831;BME280;10076;52.008;4.708;2022-11-20T00:27:37;101416.38;;;1.40;100.00
19831;BME280;10076;52.008;4.708;2022-11-20T00:30:03;101426.94;;;1.34;100.00
19831;BME280;10076;52.008;4.708;2022-11-20T00:32:29;101428.63;;;1.35;100.00
19831;BME280;10076;52.008;4.708;2022-11-20T00:34:54;101423.53;;;1.31;100.00
19831;BME280;10076;52.008;4.708;2022-11-20T00:37:20;101418.44;;;1.28;100.00
19831;BME280;10076;52.008;4.708;2022-11-20T00:39:45;101424.41;;;1.31;100.00
19831;BME280;10076;52.008;4.708;2022-11-20T00:42:10;101415.91;;;1.23;100.00
19831;BME280;10076;52.008;4.708;2022-11-20T00:44:35;101407.00;;;1.33;100.00
19831;BME280;10076;52.008;4.708;2022-11-20T00:47:01;101403.31;;;1.43;100.00
19831;BME280;10076;52.008;4.708;2022-11-20T00:49:26;101408.50;;;1.43;100.00
19831;BME280;10076;52.008;4.708;2022-11-20T00:51:51;101402.59;;;1.36;100.00
19831;BME280;10076;52.008;4.708;2022-11-20T00:54:16;101406.94;;;1.36;100.00
19831;BME280;10076;52.008;4.708;2022-11-20T00:56:42;101401.78;;;1.35;100.00
19831;BME280;10076;52.008;4.708;2022-11-20T00:59:08;101401.06;;;1.28;100.00
19831;BME280;10076;52.008;4.708;2022-11-20T01:01:35;101395.00;;;1.28;100.00
19831;BME280;10076;52.008;4.708;2022-11-20T01:04:01;101385.31;;;1.34;100.00
19831;BME280;10076;52.008;4.708;2022-11-20T01:06:29;101388.03;;;1.30;100.00
19831;BME280;10076;52.008;4.708;2022-11-20T01:08:57;101395.84;;;1.28;100.00
19831;BME280;10076;52.008;4.708;2022-11-20T01:11:25;101397.53;;;1.31;100.00
19831;BME280;10076;52.008;4.708;2022-11-20T01:13:52;101398.47;;;1.28;100.00
19831;BME280;10076;52.008;4.708;2022-11-20T01:18:45;101402.06;;;1.23;100.00
19831;BME280;10076;52.008;4.708;2022-11-20T01:21:33;101391.72;;;1.20;100.00
19831;BME280;10076;52.008;4.708;2022-11-20T01:23:57;101409.09;;;1.19;100.00
19831;BME280;10076;52.008;4.708;2022-11-20T01:26:28;101403.22;;;1.11;100.00
19831;BME280;10076;52.008;4.708;2022-11-20T01:28:53;101398.91;;;1.10;100.00
19831;BME280;10076;52.008;4.708;2022-11-20T01:31:22;101389.41;;;1.08;100.00
19831;BME280;10076;52.008;4.708;2022-11-20T01:33:50;101388.72;;;1.01;100.00
19831;BME280;10076;52.008;4.708;2022-11-20T01:36:17;101393.03;;;1.02;100.00
19831;BME280;10076;52.008;4.708;2022-11-20T01:38:43;101387.84;;;1.02;100.00
19831;BME280;10076;52.008;4.708;2022-11-20T01:41:09;101373.97;;;1.03;100.00
19831;BME280;10076;52.008;4.708;2022-11-20T01:43:35;101375.59;;;1.07;100.00
19831;BME280;10076;52.008;4.708;2022-11-20T01:46:14;101380.84;;;1.04;100.00
19831;BME280;10076;52.008;4.708;2022-11-20T01:48:48;101373.66;;;1.15;100.00
19831;BME280;10076;52.008;4.708;2022-11-20T01:51:21;101377.22;;;1.11;100.00
19831;BME280;10076;52.008;4.708;2022-11-20T01:53:49;101375.19;;;1.24;100.00
19831;BME280;10076;52.008;4.708;2022-11-20T01:56:15;101380.09;;;1.36;100.00
19831;BME280;10076;52.008;4.708;2022-11-20T01:58:45;101388.31;;;1.52;100.00
19831;BME280;10076;52.008;4.708;2022-11-20T02:01:13;101383.53;;;1.36;100.00
19831;BME280;10076;52.008;4.708;2022-11-20T02:03:39;101383.59;;;1.33;100.00
19831;BME280;10076;52.008;4.708;2022-11-20T02:06:21;101388.47;;;1.46;100.00
19831;BME280;10076;52.008;4.708;2022-11-20T02:08:48;101386.03;;;1.39;100.00
19831;BME280;10076;52.008;4.708;2022-11-20T02:11:13;101389.03;;;1.24;100.00
19831;BME280;10076;52.008;4.708;2022-11-20T02:13:39;101401.53;;;1.09;100.00
19831;BME280;10076;52.008;4.708;2022-11-20T02:16:25;101394.66;;;1.41;100.00
19831;BME280;10076;52.008;4.708;2022-11-20T02:18:51;101390.34;;;1.07;100.00
19831;BME280;10076;52.008;4.708;2022-11-20T02:21:24;101397.69;;;0.88;100.00
19831;BME280;10076;52.008;4.708;2022-11-20T02:26:23;101397.41;;;1.00;100.00
19831;BME280;10076;52.008;4.708;2022-11-20T02:28:51;101394.09;;;0.94;100.00
19831;BME280;10076;52.008;4.708;2022-11-20T02:31:16;101394.81;;;1.00;100.00
19831;BME280;10076;52.008;4.708;2022-11-20T02:33:42;101389.75;;;0.94;100.00
19831;BME280;10076;52.008;4.708;2022-11-20T02:36:09;101384.53;;;0.94;100.00
19831;BME280;10076;52.008;4.708;2022-11-20T02:38:36;101378.69;;;0.85;100.00
19831;BME280;10076;52.008;4.708;2022-11-20T02:41:01;101377.84;;;0.84;100.00
19831;BME280;10076;52.008;4.708;2022-11-20T02:43:26;101383.53;;;1.01;100.00
19831;BME280;10076;52.008;4.708;2022-11-20T02:45:51;101375.78;;;0.98;100.00
19831;BME280;10076;52.008;4.708;2022-11-20T02:48:17;101376.69;;;0.97;100.00
19831;BME280;10076;52.008;4.708;2022-11-20T02:50:42;101368.91;;;0.96;100.00
19831;BME280;10076;52.008;4.708;2022-11-20T02:53:08;101368.91;;;0.97;100.00
19831;BME280;10076;52.008;4.708;2022-11-20T02:55:33;101366.50;;;0.88;100.00
19831;BME280;10076;52.008;4.708;2022-11-20T02:57:58;101363.09;;;0.85;100.00
19831;BME280;10076;52.008;4.708;2022-11-20T03:00:23;101362.31;;;0.81;100.00
19831;BME280;10076;52.008;4.708;2022-11-20T03:02:49;101358.91;;;0.79;100.00
19831;BME280;10076;52.008;4.708;2022-11-20T03:05:15;101357.91;;;0.85;100.00
19831;BME280;10076;52.008;4.708;2022-11-20T03:07:40;101358.84;;;0.82;100.00
19831;BME280;10076;52.008;4.708;2022-11-20T03:10:06;101338.72;;;0.90;100.00
19831;BME280;10076;52.008;4.708;2022-11-20T03:12:31;101336.69;;;0.67;100.00
19831;BME280;10076;52.008;4.708;2022-11-20T03:14:56;101337.72;;;0.60;100.00
19831;BME280;10076;52.008;4.708;2022-11-20T03:17:21;101331.84;;;0.52;100.00
19831;BME280;10076;52.008;4.708;2022-11-20T03:19:47;101336.78;;;0.64;100.00
19831;BME280;10076;52.008;4.708;2022-11-20T03:22:12;101332.66;;;0.54;100.00
19831;BME280;10076;52.008;4.708;2022-11-20T03:24:37;101332.63;;;0.55;100.00
19831;BME280;10076;52.008;4.708;2022-11-20T03:27:03;101325.84;;;0.50;100.00
19831;BME280;10076;52.008;4.708;2022-11-20T03:29:28;101312.97;;;0.44;100.00
19831;BME280;10076;52.008;4.708;2022-11-20T03:31:53;101311.44;;;0.35;100.00
19831;BME280;10076;52.008;4.708;2022-11-20T03:34:19;101305.38;;;0.35;100.00
19831;BME280;10076;52.008;4.708;2022-11-20T03:36:44;101316.50;;;0.41;100.00
19831;BME280;10076;52.008;4.708;2022-11-20T03:39:10;101312.91;;;0.47;100.00
19831;BME280;10076;52.008;4.708;2022-11-20T03:41:37;101312.25;;;0.75;100.00
19831;BME280;10076;52.008;4.708;2022-11-20T03:44:05;101308.66;;;0.80;100.00
19831;BME280;10076;52.008;4.708;2022-11-20T03:46:30;101302.69;;;0.75;100.00
19831;BME280;10076;52.008;4.708;2022-11-20T03:48:56;101301.06;;;0.71;100.00
19831;BME280;10076;52.008;4.708;2022-11-20T03:51:24;101285.47;;;0.71;100.00
19831;BME280;10076;52.008;4.708;2022-11-20T03:53:52;101291.59;;;0.69;100.00
19831;BME280;10076;52.008;4.708;2022-11-20T03:56:20;101291.69;;;0.65;100.00
19831;BME280;10076;52.008;4.708;2022-11-20T03:58:48;101285.19;;;0.83;100.00
19831;BME280;10076;52.008;4.708;2022-11-20T04:01:15;101294.84;;;0.78;100.00
19831;BME280;10076;52.008;4.708;2022-11-20T04:03:42;101304.16;;;0.87;100.00
19831;BME280;10076;52.008;4.708;2022-11-20T04:06:22;101304.06;;;0.90;100.00
19831;BME280;10076;52.008;4.708;2022-11-20T04:08:48;101299.91;;;0.84;100.00
19831;BME280;10076;52.008;4.708;2022-11-20T04:11:18;101291.13;;;0.88;100.00
19831;BME280;10076;52.008;4.708;2022-11-20T04:13:55;101289.25;;;0.93;100.00
19831;BME280;10076;52.008;4.708;2022-11-20T04:16:22;101290.56;;;0.76;100.00
19831;BME280;10076;52.008;4.708;2022-11-20T04:18:52;101277.03;;;0.64;100.00
19831;BME280;10076;52.008;4.708;2022-11-20T04:21:18;101269.34;;;0.59;100.00
19831;BME280;10076;52.008;4.708;2022-11-20T04:23:43;101265.53;;;0.73;100.00
19831;BME280;10076;52.008;4.708;2022-11-20T04:26:10;101265.75;;;0.63;100.00
19831;BME280;10076;52.008;4.708;2022-11-20T04:28:37;101263.16;;;0.63;100.00
19831;BME280;10076;52.008;4.708;2022-11-20T04:31:10;101254.88;;;0.48;100.00
19831;BME280;10076;52.008;4.708;2022-11-20T04:33:36;101261.59;;;0.58;100.00
19831;BME280;10076;52.008;4.708;2022-11-20T04:36:09;101263.22;;;0.62;100.00
19831;BME280;10076;52.008;4.708;2022-11-20T04:38:35;101260.94;;;0.47;100.00
19831;BME280;10076;52.008;4.708;2022-11-20T04:41:03;101257.97;;;0.63;100.00
19831;BME280;10076;52.008;4.708;2022-11-20T04:43:30;101261.50;;;0.61;100.00
19831;BME280;10076;52.008;4.708;2022-11-20T04:45:57;101254.72;;;0.54;100.00
19831;BME280;10076;52.008;4.708;2022-11-20T04:48:23;101252.19;;;0.52;100.00
19831;BME280;10076;52.008;4.708;2022-11-20T04:50:49;101255.06;;;0.40;100.00
19831;BME280;10076;52.008;4.708;2022-11-20T04:53:14;101259.19;;;0.49;100.00
19831;BME280;10076;52.008;4.708;2022-11-20T04:55:40;101254.13;;;0.43;100.00
19831;BME280;10076;52.008;4.708;2022-11-20T04:58:06;101249.91;;;0.39;100.00
19831;BME280;10076;52.008;4.708;2022-11-20T05:00:32;101253.19;;;0.45;100.00
19831;BME280;10076;52.008;4.708;2022-11-20T05:02:57;101253.06;;;0.51;100.00
19831;BME280;10076;52.008;4.708;2022-11-20T05:05:23;101260.91;;;0.50;100.00
19831;BME280;10076;52.008;4.708;2022-11-20T05:07:48;101272.78;;;0.60;100.00
19831;BME280;10076;52.008;4.708;2022-11-20T05:10:13;101266.97;;;0.49;100.00
19831;BME280;10076;52.008;4.708;2022-11-20T05:12:39;101255.84;;;0.44;100.00
19831;BME280;10076;52.008;4.708;2022-11-20T05:15:04;101262.75;;;0.45;100.00
19831;BME280;10076;52.008;4.708;2022-11-20T05:17:30;101252.66;;;0.33;100.00
19831;BME280;10076;52.008;4.708;2022-11-20T05:19:55;101258.00;;;0.62;100.00
19831;BME280;10076;52.008;4.708;2022-11-20T05:22:20;101260.00;;;0.51;100.00
19831;BME280;10076;52.008;4.708;2022-11-20T05:24:46;101268.78;;;0.45;100.00
19831;BME280;10076;52.008;4.708;2022-11-20T05:27:11;101272.25;;;0.46;100.00
19831;BME280;10076;52.008;4.708;2022-11-20T05:29:36;101270.50;;;0.46;100.00
19831;BME280;10076;52.008;4.708;2022-11-20T05:32:01;101266.31;;;0.39;100.00
19831;BME280;10076;52.008;4.708;2022-11-20T05:34:27;101264.56;;;0.41;100.00
19831;BME280;10076;52.008;4.708;2022-11-20T05:36:52;101281.53;;;0.56;100.00
19831;BME280;10076;52.008;4.708;2022-11-20T05:39:17;101271.94;;;0.59;100.00
19831;BME280;10076;52.008;4.708;2022-11-20T05:41:43;101263.88;;;0.33;100.00
19831;BME280;10076;52.008;4.708;2022-11-20T05:44:10;101252.50;;;0.39;100.00
19831;BME280;10076;52.008;4.708;2022-11-20T05:46:36;101262.94;;;0.36;100.00
19831;BME280;10076;52.008;4.708;2022-11-20T05:49:01;101260.28;;;0.39;100.00
19831;BME280;10076;52.008;4.708;2022-11-20T05:51:27;101257.47;;;0.48;100.00
19831;BME280;10076;52.008;4.708;2022-11-20T05:53:52;101259.03;;;0.55;100.00
19831;BME280;10076;52.008;4.708;2022-11-20T05:56:19;101254.69;;;0.57;100.00
19831;BME280;10076;52.008;4.708;2022-11-20T05:58:46;101254.41;;;0.67;100.00
19831;BME280;10076;52.008;4.708;2022-11-20T06:01:14;101244.00;;;0.68;100.00
19831;BME280;10076;52.008;4.708;2022-11-20T06:03:40;101249.19;;;0.67;100.00
19831;BME280;10076;52.008;4.708;2022-11-20T06:06:08;101251.75;;;0.70;100.00
19831;BME280;10076;52.008;4.708;2022-11-20T06:08:33;101248.06;;;0.78;100.00
19831;BME280;10076;52.008;4.708;2022-11-20T06:11:03;101245.50;;;0.77;100.00
19831;BME280;10076;52.008;4.708;2022-11-20T06:13:28;101237.16;;;0.65;100.00
19831;BME280;10076;52.008;4.708;2022-11-20T06:15:54;101233.81;;;0.60;100.00
19831;BME280;10076;52.008;4.708;2022-11-20T06:18:19;101233.41;;;0.76;100.00
19831;BME280;10076;52.008;4.708;2022-11-20T06:20:45;101224.00;;;0.72;100.00
19831;BME280;10076;52.008;4.708;2022-11-20T06:23:11;101220.91;;;0.57;100.00
19831;BME280;10076;52.008;4.708;2022-11-20T06:25:41;101223.31;;;0.64;100.00
19831;BME280;10076;52.008;4.708;2022-11-20T06:28:07;101223.78;;;0.45;100.00
19831;BME280;10076;52.008;4.708;2022-11-20T06:30:32;101218.97;;;0.28;100.00
19831;BME280;10076;52.008;4.708;2022-11-20T06:32:57;101213.59;;;0.37;100.00
19831;BME280;10076;52.008;4.708;2022-11-20T06:35:23;101217.91;;;0.37;100.00
19831;BME280;10076;52.008;4.708;2022-11-20T06:37:48;101215.91;;;0.48;100.00
19831;BME280;10076;52.008;4.708;2022-11-20T06:40:13;101210.75;;;0.46;100.00
19831;BME280;10076;52.008;4.708;2022-11-20T06:42:38;101212.44;;;0.49;100.00
19831;BME280;10076;52.008;4.708;2022-11-20T06:45:04;101207.03;;;0.56;100.00
19831;BME280;10076;52.008;4.708;2022-11-20T06:47:29;101210.47;;;0.58;100.00
19831;BME280;10076;52.008;4.708;2022-11-20T06:49:55;101212.97;;;0.63;100.00
19831;BME280;10076;52.008;4.708;2022-11-20T06:52:20;101202.63;;;0.60;100.00
19831;BME280;10076;52.008;4.708;2022-11-20T06:54:45;101200.19;;;0.54;100.00
19831;BME280;10076;52.008;4.708;2022-11-20T06:57:11;101199.38;;;0.52;100.00
19831;BME280;10076;52.008;4.708;2022-11-20T06:59:36;101194.84;;;0.60;100.00
19831;BME280;10076;52.008;4.708;2022-11-20T07:02:01;101196.66;;;0.56;100.00
19831;BME280;10076;52.008;4.708;2022-11-20T07:04:27;101194.94;;;0.57;100.00
19831;BME280;10076;52.008;4.708;2022-11-20T07:06:52;101184.53;;;0.57;100.00
19831;BME280;10076;52.008;4.708;2022-11-20T07:09:17;101193.69;;;0.71;100.00
19831;BME280;10076;52.008;4.708;2022-11-20T07:11:43;101193.75;;;1.01;100.00
19831;BME280;10076;52.008;4.708;2022-11-20T07:14:08;101197.81;;;1.11;100.00
19831;BME280;10076;52.008;4.708;2022-11-20T07:16:33;101197.13;;;1.05;100.00
19831;BME280;10076;52.008;4.708;2022-11-20T07:18:59;101196.66;;;0.89;100.00
19831;BME280;10076;52.008;4.708;2022-11-20T07:21:24;101205.09;;;0.99;100.00
19831;BME280;10076;52.008;4.708;2022-11-20T07:23:49;101203.38;;;0.98;100.00
19831;BME280;10076;52.008;4.708;2022-11-20T07:26:14;101202.13;;;1.12;100.00
19831;BME280;10076;52.008;4.708;2022-11-20T07:28:40;101198.53;;;1.16;100.00
19831;BME280;10076;52.008;4.708;2022-11-20T07:31:08;101203.56;;;1.22;100.00
19831;BME280;10076;52.008;4.708;2022-11-20T07:33:34;101208.38;;;1.37;100.00
19831;BME280;10076;52.008;4.708;2022-11-20T07:35:59;101199.50;;;1.44;100.00
19831;BME280;10076;52.008;4.708;2022-11-20T07:38:25;101198.34;;;1.54;100.00
19831;BME280;10076;52.008;4.708;2022-11-20T07:40:54;101200.84;;;1.57;100.00
19831;BME280;10076;52.008;4.708;2022-11-20T07:43:19;101205.81;;;1.66;100.00
19831;BME280;10076;52.008;4.708;2022-11-20T07:45:44;101208.59;;;1.60;100.00
19831;BME280;10076;52.008;4.708;2022-11-20T07:48:10;101207.75;;;1.58;100.00
19831;BME280;10076;52.008;4.708;2022-11-20T07:50:35;101203.03;;;1.72;100.00
19831;BME280;10076;52.008;4.708;2022-11-20T07:53:02;101199.00;;;1.60;100.00
19831;BME280;10076;52.008;4.708;2022-11-20T07:55:28;101198.72;;;1.71;100.00
19831;BME280;10076;52.008;4.708;2022-11-20T07:57:56;101200.63;;;1.34;100.00
19831;BME280;10076;52.008;4.708;2022-11-20T08:00:22;101204.28;;;1.29;100.00
19831;BME280;10076;52.008;4.708;2022-11-20T08:02:48;101199.69;;;1.38;100.00
19831;BME280;10076;52.008;4.708;2022-11-20T08:05:13;101197.59;;;1.79;100.00
19831;BME280;10076;52.008;4.708;2022-11-20T08:07:40;101202.34;;;1.65;100.00
19831;BME280;10076;52.008;4.708;2022-11-20T08:10:07;101203.38;;;1.89;100.00
19831;BME280;10076;52.008;4.708;2022-11-20T08:12:32;101213.16;;;2.09;100.00
19831;BME280;10076;52.008;4.708;2022-11-20T08:15:16;101219.22;;;2.10;100.00
19831;BME280;10076;52.008;4.708;2022-11-20T08:17:42;101210.69;;;2.05;100.00
19831;BME280;10076;52.008;4.708;2022-11-20T08:20:08;101207.16;;;2.06;100.00
19831;BME280;10076;52.008;4.708;2022-11-20T08:22:33;101210.13;;;1.96;100.00
19831;BME280;10076;52.008;4.708;2022-11-20T08:24:58;101196.00;;;2.03;100.00
19831;BME280;10076;52.008;4.708;2022-11-20T08:27:24;101197.88;;;1.98;100.00
19831;BME280;10076;52.008;4.708;2022-11-20T08:29:49;101204.81;;;1.99;100.00
19831;BME280;10076;52.008;4.708;2022-11-20T08:32:14;101200.81;;;2.16;100.00
19831;BME280;10076;52.008;4.708;2022-11-20T08:34:39;101191.66;;;2.30;100.00
19831;BME280;10076;52.008;4.708;2022-11-20T08:37:05;101193.00;;;2.42;100.00
19831;BME280;10076;52.008;4.708;2022-11-20T08:39:30;101190.34;;;2.43;100.00
19831;BME280;10076;52.008;4.708;2022-11-20T08:41:56;101193.63;;;2.50;100.00
19831;BME280;10076;52.008;4.708;2022-11-20T08:44:21;101182.56;;;2.69;100.00
19831;BME280;10076;52.008;4.708;2022-11-20T08:46:47;101185.84;;;2.74;100.00
19831;BME280;10076;52.008;4.708;2022-11-20T08:49:13;101177.03;;;2.78;100.00
19831;BME280;10076;52.008;4.708;2022-11-20T08:51:39;101178.69;;;3.05;100.00
19831;BME280;10076;52.008;4.708;2022-11-20T08:54:06;101176.50;;;3.17;100.00
19831;BME280;10076;52.008;4.708;2022-11-20T08:56:31;101180.69;;;3.21;100.00
19831;BME280;10076;52.008;4.708;2022-11-20T08:58:57;101183.53;;;3.40;100.00
19831;BME280;10076;52.008;4.708;2022-11-20T09:01:24;101181.97;;;3.34;100.00
19831;BME280;10076;52.008;4.708;2022-11-20T09:03:49;101177.28;;;3.43;100.00
19831;BME280;10076;52.008;4.708;2022-11-20T09:06:15;101178.38;;;3.61;100.00
19831;BME280;10076;52.008;4.708;2022-11-20T09:08:41;101191.28;;;3.41;100.00
19831;BME280;10076;52.008;4.708;2022-11-20T09:11:06;101178.66;;;3.53;100.00
19831;BME280;10076;52.008;4.708;2022-11-20T09:13:34;101175.41;;;3.47;100.00
19831;BME280;10076;52.008;4.708;2022-11-20T09:16:03;101169.81;;;3.57;100.00
19831;BME280;10076;52.008;4.708;2022-11-20T09:18:29;101159.59;;;3.51;100.00
19831;BME280;10076;52.008;4.708;2022-11-20T09:21:01;101155.00;;;3.58;100.00
19831;BME280;10076;52.008;4.708;2022-11-20T09:23:27;101154.31;;;3.76;100.00
19831;BME280;10076;52.008;4.708;2022-11-20T09:25:55;101146.16;;;3.83;100.00
19831;BME280;10076;52.008;4.708;2022-11-20T09:28:24;101152.66;;;3.50;100.00
19831;BME280;10076;52.008;4.708;2022-11-20T09:30:50;101136.41;;;3.65;100.00
19831;BME280;10076;52.008;4.708;2022-11-20T09:33:15;101141.88;;;3.59;100.00
19831;BME280;10076;52.008;4.708;2022-11-20T09:35:40;101132.34;;;3.81;100.00
19831;BME280;10076;52.008;4.708;2022-11-20T09:38:06;101131.59;;;3.78;100.00
19831;BME280;10076;52.008;4.708;2022-11-20T09:40:34;101131.84;;;3.93;100.00
19831;BME280;10076;52.008;4.708;2022-11-20T09:43:21;101120.16;;;4.24;100.00
19831;BME280;10076;52.008;4.708;2022-11-20T09:51:26;101116.66;;;4.85;100.00
19831;BME280;10076;52.008;4.708;2022-11-20T09:56:45;101093.75;;;5.10;100.00
19831;BME280;10076;52.008;4.708;2022-11-20T09:59:29;101102.06;;;5.19;100.00
19831;BME280;10076;52.008;4.708;2022-11-20T10:01:58;101100.91;;;5.25;100.00
19831;BME280;10076;52.008;4.708;2022-11-20T10:04:24;101104.44;;;5.24;100.00
19831;BME280;10076;52.008;4.708;2022-11-20T10:09:30;101084.94;;;5.31;100.00
19831;BME280;10076;52.008;4.708;2022-11-20T10:14:28;101066.16;;;5.03;100.00
19831;BME280;10076;52.008;4.708;2022-11-20T10:22:31;101047.59;;;4.89;100.00
19831;BME280;10076;52.008;4.708;2022-11-20T10:25:20;101046.38;;;4.78;100.00
19831;BME280;10076;52.008;4.708;2022-11-20T10:30:57;101032.59;;;4.54;100.00
19831;BME280;10076;52.008;4.708;2022-11-20T10:33:27;101028.34;;;4.52;100.00
19831;BME280;10076;52.008;4.708;2022-11-20T10:38:39;101009.28;;;4.50;100.00
19831;BME280;10076;52.008;4.708;2022-11-20T10:41:16;101003.50;;;4.62;100.00
19831;BME280;10076;52.008;4.708;2022-11-20T10:43:58;101000.94;;;4.60;100.00
19831;BME280;10076;52.008;4.708;2022-11-20T10:46:27;100994.72;;;4.63;100.00
19831;BME280;10076;52.008;4.708;2022-11-20T10:48:57;101000.38;;;4.74;100.00
19831;BME280;10076;52.008;4.708;2022-11-20T11:01:48;100975.84;;;4.94;100.00
19831;BME280;10076;52.008;4.708;2022-11-20T11:04:37;100970.72;;;4.91;100.00
19831;BME280;10076;52.008;4.708;2022-11-20T11:09:46;100969.53;;;4.98;100.00
19831;BME280;10076;52.008;4.708;2022-11-20T11:12:12;100964.16;;;4.83;100.00
19831;BME280;10076;52.008;4.708;2022-11-20T11:14:43;100969.06;;;4.90;100.00
19831;BME280;10076;52.008;4.708;2022-11-20T11:17:19;100961.69;;;4.98;100.00
19831;BME280;10076;52.008;4.708;2022-11-20T11:19:45;100962.97;;;4.90;100.00
19831;BME280;10076;52.008;4.708;2022-11-20T11:22:16;100953.94;;;4.97;100.00
19831;BME280;10076;52.008;4.708;2022-11-20T11:24:52;100947.94;;;5.13;100.00
19831;BME280;10076;52.008;4.708;2022-11-20T11:27:17;100929.38;;;5.18;100.00
19831;BME280;10076;52.008;4.708;2022-11-20T11:29:43;100926.75;;;5.18;100.00
19831;BME280;10076;52.008;4.708;2022-11-20T11:34:37;100913.19;;;5.10;100.00
19831;BME280;10076;52.008;4.708;2022-11-20T11:37:04;100905.63;;;5.39;100.00
19831;BME280;10076;52.008;4.708;2022-11-20T11:39:30;100904.03;;;5.37;100.00
19831;BME280;10076;52.008;4.708;2022-11-20T11:41:58;100888.00;;;5.43;100.00
19831;BME280;10076;52.008;4.708;2022-11-20T11:44:30;100885.09;;;5.48;100.00
19831;BME280;10076;52.008;4.708;2022-11-20T11:47:24;100873.53;;;5.36;100.00
19831;BME280;10076;52.008;4.708;2022-11-20T11:52:41;100852.56;;;5.36;100.00
19831;BME280;10076;52.008;4.708;2022-11-20T11:55:14;100843.88;;;5.35;100.00
19831;BME280;10076;52.008;4.708;2022-11-20T11:57:55;100831.81;;;5.33;100.00
19831;BME280;10076;52.008;4.708;2022-11-20T12:00:24;100824.56;;;5.38;100.00
19831;BME280;10076;52.008;4.708;2022-11-20T12:03:06;100813.78;;;5.44;100.00
19831;BME280;10076;52.008;4.708;2022-11-20T12:05:40;100816.63;;;5.39;100.00
19831;BME280;10076;52.008;4.708;2022-11-20T12:08:24;100818.16;;;5.43;100.00
19831;BME280;10076;52.008;4.708;2022-11-20T12:11:04;100825.88;;;5.46;100.00
19831;BME280;10076;52.008;4.708;2022-11-20T12:13:37;100815.19;;;5.50;100.00
19831;BME280;10076;52.008;4.708;2022-11-20T12:16:05;100824.34;;;5.42;100.00
19831;BME280;10076;52.008;4.708;2022-11-20T12:18:33;100834.88;;;5.41;100.00
19831;BME280;10076;52.008;4.708;2022-11-20T12:21:17;100819.84;;;5.44;100.00
19831;BME280;10076;52.008;4.708;2022-11-20T12:26:43;100821.88;;;5.39;100.00
19831;BME280;10076;52.008;4.708;2022-11-20T12:34:43;100811.56;;;5.53;100.00
19831;BME280;10076;52.008;4.708;2022-11-20T12:39:48;100812.91;;;5.43;100.00
19831;BME280;10076;52.008;4.708;2022-11-20T12:42:37;100807.69;;;5.43;100.00
19831;BME280;10076;52.008;4.708;2022-11-20T12:48:19;100793.06;;;5.39;100.00
19831;BME280;10076;52.008;4.708;2022-11-20T12:53:49;100775.81;;;5.52;100.00
19831;BME280;10076;52.008;4.708;2022-11-20T12:56:43;100766.03;;;5.55;100.00
19831;BME280;10076;52.008;4.708;2022-11-20T13:04:55;100742.69;;;5.51;100.00
19831;BME280;10076;52.008;4.708;2022-11-20T13:07:30;100751.16;;;5.56;100.00
19831;BME280;10076;52.008;4.708;2022-11-20T13:09:56;100731.53;;;5.47;100.00
19831;BME280;10076;52.008;4.708;2022-11-20T13:12:31;100737.53;;;5.66;100.00
19831;BME280;10076;52.008;4.708;2022-11-20T13:15:00;100728.19;;;5.61;100.00
19831;BME280;10076;52.008;4.708;2022-11-20T13:17:44;100717.72;;;5.78;100.00
19831;BME280;10076;52.008;4.708;2022-11-20T13:20:16;100728.97;;;5.63;100.00
19831;BME280;10076;52.008;4.708;2022-11-20T13:22:44;100718.72;;;5.58;100.00
19831;BME280;10076;52.008;4.708;2022-11-20T13:25:42;100704.63;;;5.78;100.00
19831;BME280;10076;52.008;4.708;2022-11-20T13:30:36;100714.97;;;5.64;100.00
19831;BME280;10076;52.008;4.708;2022-11-20T13:33:09;100709.63;;;5.65;100.00
19831;BME280;10076;52.008;4.708;2022-11-20T13:36:01;100712.66;;;5.58;100.00
19831;BME280;10076;52.008;4.708;2022-11-20T13:38:27;100707.81;;;5.50;100.00
19831;BME280;10076;52.008;4.708;2022-11-20T13:40:57;100696.00;;;5.76;100.00
19831;BME280;10076;52.008;4.708;2022-11-20T13:45:59;100676.44;;;5.66;100.00
19831;BME280;10076;52.008;4.708;2022-11-20T13:48:29;100682.00;;;5.75;100.00
19831;BME280;10076;52.008;4.708;2022-11-20T13:51:06;100675.16;;;5.73;100.00
19831;BME280;10076;52.008;4.708;2022-11-20T14:01:29;100657.78;;;5.72;100.00
19831;BME280;10076;52.008;4.708;2022-11-20T14:03:57;100647.28;;;5.56;100.00
19831;BME280;10076;52.008;4.708;2022-11-20T14:06:31;100640.81;;;5.79;100.00
19831;BME280;10076;52.008;4.708;2022-11-20T14:08:59;100648.56;;;5.65;100.00
19831;BME280;10076;52.008;4.708;2022-11-20T14:11:29;100644.00;;;5.68;100.00
19831;BME280;10076;52.008;4.708;2022-11-20T14:16:35;100623.88;;;5.69;100.00
19831;BME280;10076;52.008;4.708;2022-11-20T14:21:48;100596.25;;;5.48;100.00
19831;BME280;10076;52.008;4.708;2022-11-20T14:24:18;100589.31;;;5.47;100.00